Terminal Aerodrome Forecast
Issued by NWS

Home | Current Version | Previous Version | Text Only | Print | Product List | Glossary On
Versions: 1 2 3 4 5 6 7 8 9 10 11 12 13 14 15 16 17
000
FTUS45 KABQ 072346
TAFAEG
TAF
KAEG 072346Z 0800/0824 33010KT P6SM VCTS SCT050CB BKN120
     FM080100 15010KT P6SM VCSH SCT060 BKN120
     FM080300 25010KT P6SM VCTS SCT040CB BKN100
      TEMPO 0803/0805 VRB15G25KT -SHRA BKN040
     FM080500 VRB05KT P6SM BKN100
     FM082000 25013G22KT P6SM VCSH SCT070 BKN120=

USA.gov is the U.S. government's official web portal to all federal, state and local government web resources and services.